Latest Weather Observations for Wellcamp Airport

IDQ60801

Issued at 6:32 pm EST Tuesday 23 April 2019 (issued every 10 minutes, with the page automatically refreshed every 10 minutes)

About weather observations | Map of weather stations | Latest weather observations for QLD | Other Formats
Station Details ID: 541150 Name: WELLCAMP AIRPORT Lat: -27.55 Lon: 151.78 Height: 436.98 m
Data from the previous 72 hours. | See also: Recent months for locations in Queensland
Date/Time
EST
Temp
°C
App
Temp
°C
Dew
Point
°C
Rel
Hum
%
Delta-T
°C
Wind Press
QNH
hPa
Press
MSL
hPa
Rain since
9am
mm
Dir  Spd
km/h
Gust
km/h
Spd
kts
Gust
kts
23/06:30pm 19.9 18.3 16.0 78 2.4 ESE 19 26 10 14 1022.7 1021.2 0.0
23/06:00pm 20.2 18.3 15.8 76 2.7 E 20 30 11 16 1022.5 1021.0 0.0
23/05:30pm 20.5 17.1 15.7 74 2.9 ESE 28 35 15 19 1021.9 1020.5 0.0
23/05:00pm 21.0 18.0 15.8 72 3.2 ESE 26 32 14 17 1021.7 1020.3 0.0
23/04:30pm 21.8 19.5 15.6 68 3.8 ESE 22 30 12 16 1021.7 1020.3 0.0
23/04:00pm 22.2 20.3 15.3 65 4.2 E 19 24 10 13 1021.6 1020.2 0.0
23/03:30pm 22.7 20.0 14.5 60 4.9 E 22 28 12 15 1021.4 1020.0 0.0
23/03:00pm 22.8 20.0 14.4 59 5.0 ESE 22 28 12 15 1021.7 1020.3 0.0
23/02:30pm 23.3 19.7 14.3 57 5.4 ESE 26 33 14 18 1021.6 1020.2 0.0
23/02:00pm 23.3 19.7 14.3 57 5.4 ESE 26 35 14 19 1021.8 1020.4 0.0
23/01:30pm 23.3 20.6 14.6 58 5.2 E 22 32 12 17 1021.9 1020.5 0.0
23/01:00pm 23.0 19.8 14.3 58 5.2 ESE 24 33 13 18 1022.5 1021.0 0.0
23/12:30pm 22.9 19.8 14.5 59 5.0 ESE 24 32 13 17 1023.0 1021.5 0.0
23/12:00pm 23.1 20.0 14.4 58 5.2 ESE 24 33 13 18 1023.3 1021.8 0.0
23/11:30am 22.3 19.2 14.4 61 4.7 ESE 24 33 13 18 1023.5 1022.1 0.0
23/11:00am 21.9 18.5 14.8 64 4.3 ESE 26 39 14 21 1024.0 1022.6 0.0
23/10:30am 22.0 18.9 14.4 62 4.5 ESE 24 35 13 19 1024.4 1023.0 0.0
23/10:00am 22.0 16.7 14.1 61 4.7 ESE 35 50 19 27 1024.1 1022.7 0.0
23/09:30am 22.5 17.8 14.9 62 4.6 ESE 33 46 18 25 1024.0 1022.6 0.0
23/09:22am 22.2 18.4 14.8 63 4.5 ESE 28 46 15 25 1023.9 1022.5 0.0
23/09:00am 20.5 15.7 14.6 69 3.5 ESE 33 44 18 24 1024.0 1022.6 0.0
23/08:45am 20.3 16.6 14.9 71 3.2 ESE 28 46 15 25 1023.9 1022.5 0.0
23/08:30am 20.1 16.1 15.1 73 3.0 ESE 30 43 16 23 1024.0 1022.6 0.0
23/08:00am 19.6 16.4 15.3 76 2.6 SE 26 35 14 19 1024.0 1022.6 0.0
23/07:30am 19.2 16.5 15.5 79 2.2 ESE 24 32 13 17 1023.7 1022.3 0.0
23/07:00am 18.8 16.1 15.5 81 2.0 ESE 24 33 13 18 1023.6 1022.2 0.0
23/06:30am 18.5 16.1 15.4 82 1.9 ESE 22 32 12 17 1023.3 1021.8 0.0
23/06:00am 18.4 16.4 15.5 83 1.7 ESE 20 26 11 14 1022.9 1021.4 0.0
23/05:30am 18.4 17.0 15.5 83 1.7 SE 17 24 9 13 1022.7 1021.2 0.0
23/05:00am 18.5 17.2 15.7 84 1.7 ESE 17 26 9 14 1022.4 1020.9 0.0
23/04:35am 18.5 17.2 15.7 84 1.7 ESE 17 24 9 13 1022.4 1020.9 0.0
23/04:30am 18.5 16.8 15.7 84 1.7 ESE 19 26 10 14 1022.2 1020.8 0.0
23/04:00am 18.6 16.3 15.8 84 1.7 ESE 22 32 12 17 1022.0 1020.6 0.0
23/03:30am 18.5 17.2 15.9 85 1.6 ESE 17 26 9 14 1022.0 1020.6 0.0
23/03:29am 18.5 17.2 15.9 85 1.6 ESE 17 26 9 14 1022.0 1020.6 0.0
23/03:00am 18.6 17.4 16.0 85 1.6 ESE 17 26 9 14 1021.9 1020.5 0.0
23/02:41am 18.5 17.2 15.9 85 1.6 ESE 17 24 9 13 1021.9 1020.5 0.0
23/02:30am 18.7 17.1 16.1 85 1.6 ESE 19 32 10 17 1022.0 1020.6 0.0
23/02:24am 18.6 17.3 15.8 84 1.7 ESE 17 24 9 13 1022.0 1020.6 0.0
23/02:03am 18.6 17.0 16.0 85 1.6 ESE 19 28 10 15 1022.2 1020.8 0.0
23/02:00am 18.6 17.0 16.0 85 1.6 ESE 19 28 10 15 1022.2 1020.8 0.0
23/01:30am 17.8 17.7 16.1 90 1.0 SSE 11 19 6 10 1022.5 1021.0 0.0
23/01:00am 17.7 17.3 16.2 91 0.9 SE 13 19 7 10 1022.9 1021.4 0.0
23/12:30am 17.7 16.6 16.4 92 0.8 ESE 17 26 9 14 1023.1 1021.6 0.0
23/12:00am 18.2 16.7 16.4 89 1.1 SE 19 26 10 14 1023.2 1021.7 0.0
 
Date/Time
EST
Temp
°C
App
Temp
°C
Dew
Point
°C
Rel
Hum
%
Delta-T
°C
Wind Press
QNH
hPa
Press
MSL
hPa
Rain since
9am
mm
Dir  Spd
km/h
Gust
km/h
Spd
kts
Gust
kts
22/11:30pm 18.3 17.2 16.3 88 1.2 SE 17 24 9 13 1023.3 1021.8 0.0
22/11:00pm 18.3 17.2 16.3 88 1.2 ESE 17 20 9 11 1023.4 1022.0 0.0
22/10:30pm 18.6 17.4 16.2 86 1.5 ESE 17 26 9 14 1023.3 1021.8 0.0
22/10:08pm 18.3 18.0 16.5 89 1.1 ESE 13 17 7 9 1023.1 1021.6 0.0
22/10:01pm 18.7 17.3 16.5 87 1.3 ESE 19 30 10 16 1023.3 1021.8 0.0
22/10:00pm 18.7 17.2 16.3 86 1.5 ESE 19 30 10 16 1023.3 1021.8 0.0
22/09:39pm 18.8 17.6 16.2 85 1.6 ESE 17 20 9 11 1023.3 1021.8 0.0
22/09:38pm 18.7 17.5 16.1 85 1.6 ESE 17 24 9 13 1023.3 1021.8 0.0
22/09:30pm 18.7 17.1 16.1 85 1.6 ESE 19 24 10 13 1023.2 1021.7 0.0
22/09:20pm 18.8 16.6 16.0 84 1.7 ESE 22 32 12 17 1023.2 1021.7 0.0
22/09:00pm 19.1 17.5 16.1 83 1.8 ESE 19 26 10 14 1023.1 1021.6 0.0
22/08:30pm 19.2 16.2 15.9 81 2.0 ESE 26 37 14 20 1022.8 1021.3 0.0
22/08:00pm 19.6 17.2 16.3 81 2.0 E 24 30 13 16 1022.7 1021.2 0.0
22/07:30pm 19.9 17.3 16.0 78 2.4 E 24 35 13 19 1022.5 1021.0 0.0
22/07:00pm 20.0 16.8 16.2 79 2.3 E 28 35 15 19 1022.0 1020.6 0.0
22/06:30pm 20.2 16.9 16.0 77 2.6 E 28 39 15 21 1021.2 1019.7 0.0
22/06:00pm 20.3 17.0 16.1 77 2.6 ESE 28 41 15 22 1021.0 1019.5 0.0
22/05:30pm 21.0 18.4 16.0 73 3.1 E 24 32 13 17 1020.7 1019.2 0.0
22/05:00pm 21.7 19.1 16.0 70 3.5 E 24 32 13 17 1020.5 1019.0 0.0
22/04:30pm 22.5 19.9 15.8 66 4.1 ESE 24 37 13 20 1020.4 1018.9 0.0
22/04:00pm 23.0 20.2 15.3 62 4.7 E 24 33 13 18 1020.3 1018.8 0.0
22/03:30pm 23.4 19.8 15.2 60 5.0 ESE 28 35 15 19 1020.1 1018.6 0.0
22/03:00pm 23.7 21.5 14.9 57 5.3 ESE 20 32 11 17 1020.2 1018.7 0.0
22/02:30pm 23.5 20.6 15.0 59 5.2 E 24 33 13 18 1020.2 1018.7 0.0
22/02:00pm 23.5 20.4 14.5 57 5.4 E 24 37 13 20 1020.1 1018.6 0.0
22/01:30pm 23.3 20.1 14.3 57 5.4 E 24 33 13 18 1020.3 1018.8 0.0
22/01:00pm 23.6 21.0 14.9 58 5.3 ESE 22 32 12 17 1020.7 1019.2 0.0
22/12:30pm 23.0 20.2 14.3 58 5.2 E 22 32 12 17 1021.1 1019.6 0.0
22/12:00pm 22.9 19.2 13.9 57 5.3 E 26 33 14 18 1021.3 1019.9 0.0
22/11:30am 22.6 19.7 13.9 58 5.2 E 22 33 12 18 1021.7 1020.3 0.0
22/11:00am 22.7 18.3 14.0 58 5.2 E 30 41 16 22 1021.8 1020.4 0.0
22/10:30am 22.4 17.1 12.6 54 5.7 E 32 46 17 25 1021.8 1020.4 0.0
22/10:00am 21.6 17.7 14.5 64 4.2 ESE 28 44 15 24 1022.0 1020.6 0.0
22/09:30am 20.9 17.0 15.4 71 3.3 ESE 30 44 16 24 1022.2 1020.8 0.0
22/09:00am 19.9 15.6 15.3 75 2.8 ESE 32 44 17 24 1022.2 1020.8 0.2
22/08:30am 19.6 16.9 15.7 78 2.4 ESE 24 33 13 18 1022.0 1020.6 0.2
22/08:00am 18.7 16.8 15.8 83 1.7 ESE 20 28 11 15 1021.8 1020.4 0.2
22/07:30am 18.3 17.0 15.7 85 1.6 ESE 17 24 9 13 1021.8 1020.4 0.2
22/07:00am 17.9 16.0 15.7 87 1.3 SE 20 28 11 15 1021.4 1020.0 0.2
22/06:30am 17.4 16.4 15.7 90 1.0 ESE 15 22 8 12 1021.0 1019.5 0.2
22/06:00am 17.1 - 15.6 91 0.9 - - - - - 1020.7 1019.2 0.2
22/05:30am 16.8 17.4 15.7 93 0.7 ESE 7 13 4 7 1020.7 1019.2 0.0
22/05:00am 16.5 16.6 15.4 93 0.7 ESE 9 15 5 8 1020.6 1019.1 0.0
22/04:54am 16.5 16.9 15.4 93 0.7 SE 7 11 4 6 1020.7 1019.2 0.0
22/04:37am 16.4 16.5 15.4 94 0.6 SSE 9 13 5 7 1020.5 1019.0 0.0
22/04:30am 16.3 16.3 15.3 94 0.6 SSE 9 13 5 7 1020.4 1018.9 0.0
22/04:00am 16.1 15.3 15.1 94 0.6 SSE 13 15 7 8 1020.6 1019.1 0.0
22/03:30am 16.5 15.9 14.5 88 1.2 SSE 11 15 6 8 1020.6 1019.1 0.0
22/03:04am 17.2 15.0 14.3 83 1.7 SE 19 30 10 16 1020.7 1019.2 0.0
22/03:00am 17.3 15.0 14.2 82 1.8 SE 19 30 10 16 1020.6 1019.1 0.0
22/02:30am 17.7 15.1 13.8 78 2.3 ESE 20 28 11 15 1020.4 1018.9 0.0
22/02:00am 17.4 15.3 13.5 78 2.2 SE 17 22 9 12 1020.5 1019.0 0.0
22/01:30am 16.2 14.7 13.1 82 1.8 SSE 13 26 7 14 1020.9 1019.4 0.0
22/01:00am 16.5 15.3 14.0 85 1.4 ESE 13 19 7 10 1021.2 1019.7 0.0
22/12:30am 16.7 14.4 14.2 85 1.5 ESE 19 22 10 12 1021.4 1020.0 0.0
22/12:00am 16.6 15.4 14.1 85 1.4 ESE 13 19 7 10 1021.7 1020.3 0.0
 
Date/Time
EST
Temp
°C
App
Temp
°C
Dew
Point
°C
Rel
Hum
%
Delta-T
°C
Wind Press
QNH
hPa
Press
MSL
hPa
Rain since
9am
mm
Dir  Spd
km/h
Gust
km/h
Spd
kts
Gust
kts
21/11:30pm 17.0 15.5 14.1 83 1.7 ESE 15 19 8 10 1022.0 1020.6 0.0
21/11:00pm 16.6 15.5 14.4 87 1.3 SE 13 22 7 12 1022.1 1020.7 0.0
21/10:30pm 16.8 16.1 14.3 85 1.5 SE 11 13 6 7 1022.6 1021.1 0.0
21/10:00pm 17.7 16.5 15.0 84 1.6 ESE 15 20 8 11 1022.7 1021.2 0.0
21/09:30pm 17.8 16.6 15.1 84 1.6 ESE 15 20 8 11 1022.8 1021.3 0.0
21/09:00pm 18.3 16.9 14.6 79 2.2 ESE 15 19 8 10 1022.7 1021.2 0.0
21/08:30pm 19.1 16.9 14.4 74 2.8 ESE 19 26 10 14 1022.5 1021.0 0.0
21/08:00pm 19.3 17.8 14.1 72 3.0 ESE 15 19 8 10 1022.1 1020.7 0.0
21/07:30pm 18.7 17.9 14.0 74 2.8 ESE 11 13 6 7 1022.1 1020.7 0.0
21/07:00pm 19.6 17.6 14.0 70 3.3 ESE 17 20 9 11 1021.7 1020.3 0.0
21/06:30pm 20.2 18.2 13.9 67 3.7 E 17 24 9 13 1021.3 1019.9 0.0
21/06:00pm 20.9 16.8 13.8 64 4.2 E 28 35 15 19 1021.1 1019.6 0.0
21/05:30pm 21.3 17.4 14.5 65 4.1 E 28 39 15 21 1020.8 1019.3 0.0
21/05:00pm 22.2 17.8 15.1 64 4.3 E 32 44 17 24 1020.6 1019.1 0.0
21/04:30pm 22.8 19.3 15.6 64 4.4 E 28 39 15 21 1020.3 1018.8 0.0
21/04:00pm 23.5 19.5 15.3 60 5.0 E 30 39 16 21 1020.0 1018.5 0.0
21/03:30pm 23.9 21.1 15.4 59 5.2 ESE 24 33 13 18 1019.7 1018.3 0.0
21/03:00pm 24.7 21.2 15.6 57 5.6 ESE 28 37 15 20 1019.5 1018.1 0.0
21/02:42pm 24.3 20.5 15.8 59 5.2 ESE 30 48 16 26 1019.6 1018.2 0.0
21/02:30pm 24.7 20.4 15.9 58 5.4 ESE 33 43 18 23 1019.6 1018.2 0.0
21/02:00pm 25.1 21.0 14.9 53 6.2 E 30 39 16 21 1019.6 1018.2 0.0
21/01:30pm 25.3 20.6 14.4 50 6.6 ESE 32 44 17 24 1019.8 1018.4 0.0
21/01:00pm 24.4 21.1 15.1 56 5.7 ESE 26 35 14 19 1020.3 1018.8 0.0
21/12:30pm 23.3 19.5 14.6 58 5.2 ESE 28 39 15 21 1020.9 1019.4 0.0
21/12:00pm 22.6 18.4 14.7 61 4.7 ESE 30 41 16 22 1021.2 1019.7 0.0
21/11:30am 23.5 19.0 14.8 58 5.3 ESE 32 41 17 22 1021.6 1020.2 0.0
21/11:00am 24.2 20.1 14.9 56 5.6 ESE 30 43 16 23 1022.0 1020.6 0.0
21/10:30am 23.0 17.8 14.6 59 5.1 ESE 35 52 19 28 1022.2 1020.8 0.0
21/10:13am 23.2 18.6 14.7 58 5.1 ESE 32 54 17 29 1022.5 1021.0 0.0
21/10:00am 22.0 18.5 15.4 66 4.0 ESE 28 35 15 19 1022.6 1021.1 0.0
21/09:31am 21.6 17.6 15.2 67 3.9 ESE 30 48 16 26 1022.4 1020.9 0.0
21/09:30am 21.6 17.5 15.0 66 4.0 ESE 30 43 16 23 1022.6 1021.1 0.0
21/09:00am 21.1 17.6 15.4 70 3.4 ESE 28 43 15 23 1022.7 1021.2 0.2
21/08:30am 20.3 16.3 15.3 73 3.0 ESE 30 46 16 25 1022.7 1021.2 0.2
21/08:00am 20.2 16.8 15.8 76 2.7 ESE 28 35 15 19 1022.7 1021.2 0.2
21/07:30am 19.3 16.6 15.6 79 2.2 ESE 24 37 13 20 1022.5 1021.0 0.2
21/07:00am 19.0 16.4 15.9 82 1.9 ESE 24 39 13 21 1022.5 1021.0 0.2
21/06:46am 18.8 17.2 16.0 84 1.7 ESE 19 24 10 13 1022.4 1020.9 0.2
21/06:30am 18.5 16.7 15.9 85 1.6 SE 20 33 11 18 1022.1 1020.7 0.2
21/06:08am 18.2 16.3 15.8 86 1.4 SE 20 28 11 15 1021.8 1020.4 0.2
21/06:04am 18.1 15.8 15.7 86 1.4 SE 22 33 12 18 1021.8 1020.4 0.2
21/06:00am 18.1 15.4 15.5 85 1.6 SE 24 33 13 18 1021.8 1020.4 0.2
21/05:30am 18.7 17.2 16.3 86 1.5 SE 19 24 10 13 1021.5 1020.1 0.2
21/05:00am 18.5 15.7 16.3 87 1.3 ESE 26 37 14 20 1021.2 1019.7 0.2
21/04:30am 18.6 17.0 16.4 87 1.3 ESE 20 30 11 16 1020.8 1019.3 0.2
21/04:00am 18.7 17.6 16.3 86 1.5 ESE 17 26 9 14 1020.8 1019.3 0.2
21/03:30am 18.5 17.4 16.3 87 1.3 ESE 17 26 9 14 1020.9 1019.4 0.2
21/03:00am 18.5 17.2 16.7 89 1.1 ESE 19 26 10 14 1021.0 1019.5 0.2
21/02:30am 18.4 16.9 16.7 90 1.0 ESE 20 30 11 16 1021.1 1019.6 0.2
21/02:00am 18.5 16.0 17.0 91 0.9 ESE 26 33 14 18 1021.1 1019.6 0.2
21/01:30am 19.1 16.1 16.7 86 1.5 ESE 28 41 15 22 1021.4 1020.0 0.2
21/01:00am 19.0 16.4 16.8 87 1.3 SE 26 35 14 19 1021.3 1019.9 0.2
21/12:56am 19.0 16.4 16.8 87 1.4 ESE 26 37 14 20 1021.4 1020.0 0.2
21/12:34am 18.4 16.8 16.6 89 1.1 ESE 20 30 11 16 1021.6 1020.2 0.2
21/12:30am 18.4 16.8 16.6 89 1.1 ESE 20 30 11 16 1021.6 1020.2 0.2
21/12:20am 18.4 17.0 16.9 91 0.9 ESE 20 28 11 15 1021.8 1020.4 0.2
21/12:00am 18.4 17.4 16.7 90 1.0 ESE 17 28 9 15 1021.9 1020.5 0.2
 
Date/Time
EST
Temp
°C
App
Temp
°C
Dew
Point
°C
Rel
Hum
%
Delta-T
°C
Wind Press
QNH
hPa
Press
MSL
hPa
Rain since
9am
mm
Dir  Spd
km/h
Gust
km/h
Spd
kts
Gust
kts
20/11:30pm 18.5 17.1 16.5 88 1.2 SE 19 26 10 14 1022.0 1020.6 0.2
20/11:00pm 18.7 16.4 16.7 88 1.2 SE 24 35 13 19 1022.1 1020.7 0.2
20/10:30pm 18.6 17.1 16.8 89 1.1 SE 20 28 11 15 1022.2 1020.8 0.2
20/10:00pm 19.0 16.5 17.0 88 1.2 ESE 26 37 14 20 1022.5 1021.0 0.2
20/09:30pm 19.1 17.5 17.4 90 1.1 ESE 22 32 12 17 1022.6 1021.1 0.2
20/09:02pm 19.2 16.9 17.5 90 1.1 ESE 26 33 14 18 1022.6 1021.1 0.2
20/09:00pm 19.3 16.9 17.4 89 1.2 ESE 26 33 14 18 1022.6 1021.1 0.2
20/08:30pm 20.0 18.8 17.0 83 1.9 SE 19 26 10 14 1022.6 1021.1 0.0
20/08:00pm 19.7 18.4 16.9 84 1.7 SE 19 26 10 14 1022.6 1021.1 0.0
20/07:30pm 20.1 18.8 16.7 81 2.1 ESE 19 26 10 14 1022.4 1020.9 0.0
20/07:00pm 19.9 18.4 16.7 82 2.0 ESE 20 26 11 14 1021.9 1020.5 0.0

Other formats

Comma delimited format used in spreadsheet applications
http://www.bom.gov.au/fwo/IDQ60801/IDQ60801.99435.axf

JavaScript Object Notation format (JSON) in row-major order
http://www.bom.gov.au/fwo/IDQ60801/IDQ60801.99435.json

Data quality

Most of these data are generated automatically and are frequently updated. Quality checks on data are not normally performed. It is possible for incorrect values to appear. Refer to information at About Latest Weather Observations and please check the disclaimer before using these data.